Time;durP1;ratioP1;P1;durP2;ratioP2;P2;SDS_P1;SDS_P2;PMS_P1;PMS_P2;Temp;Humidity;BMP_temperature;BMP_pressure;BME280_temperature;BME280_humidity;BME280_pressure;Samples;Min_cycle;Max_cycle;Signal;HPM_P1;HPM_P2
2021/01/18 00:01:28;;;;;;;25.67;13.90;;;2.00;70.80;;;;;;4855315;29;20431;-73
2021/01/18 00:03:57;;;;;;;29.30;12.40;;;2.00;70.80;;;;;;4856102;29;20066;-72
2021/01/18 00:06:25;;;;;;;25.98;12.95;;;2.00;71.60;;;;;;4855453;29;20053;-71
2021/01/18 00:08:53;;;;;;;21.35;11.38;;;1.90;71.50;;;;;;4854593;29;20080;-71
2021/01/18 00:11:22;;;;;;;28.83;12.05;;;2.00;71.80;;;;;;4853681;29;20520;-74
2021/01/18 00:13:51;;;;;;;23.65;11.52;;;2.00;71.60;;;;;;4856691;29;20058;-70
2021/01/18 00:16:19;;;;;;;24.25;12.13;;;2.00;71.50;;;;;;4856910;29;20060;-73
2021/01/18 00:18:47;;;;;;;23.55;11.52;;;1.90;71.30;;;;;;4855689;29;20065;-71
2021/01/18 00:21:16;;;;;;;21.95;12.55;;;2.00;71.30;;;;;;4856587;29;20053;-76
2021/01/18 00:23:44;;;;;;;25.08;11.70;;;1.90;71.20;;;;;;4858495;29;20094;-74
2021/01/18 00:26:11;;;;;;;21.55;12.00;;;1.90;71.20;;;;;;4858369;29;20053;-72
2021/01/18 00:28:42;;;;;;;29.13;12.95;;;1.90;70.90;;;;;;4855012;29;20056;-71
2021/01/18 00:31:09;;;;;;;21.42;12.05;;;2.00;70.60;;;;;;4854264;29;20096;-73
2021/01/18 00:33:37;;;;;;;23.55;12.30;;;1.90;70.60;;;;;;4855342;29;20065;-72
2021/01/18 00:36:05;;;;;;;20.15;12.27;;;1.90;71.00;;;;;;4853892;29;20223;-72
2021/01/18 00:38:34;;;;;;;18.73;10.70;;;2.00;70.90;;;;;;4857340;29;20137;-71
2021/01/18 00:41:01;;;;;;;23.50;11.82;;;1.90;70.80;;;;;;4855399;29;20464;-72
2021/01/18 00:43:30;;;;;;;19.50;11.48;;;1.90;70.20;;;;;;4853170;29;20065;-70
2021/01/18 00:45:57;;;;;;;22.23;11.98;;;1.90;71.10;;;;;;4856638;29;20085;-71
2021/01/18 00:48:25;;;;;;;23.50;11.45;;;1.90;70.30;;;;;;4854352;29;20076;-72
2021/01/18 00:50:52;;;;;;;22.58;11.73;;;1.90;70.40;;;;;;4852150;29;20049;-73
2021/01/18 00:53:20;;;;;;;23.48;11.82;;;1.90;70.50;;;;;;4853053;29;20057;-72
2021/01/18 00:55:48;;;;;;;22.35;11.57;;;2.00;69.70;;;;;;4854413;29;20080;-73
2021/01/18 00:58:16;;;;;;;22.75;12.80;;;2.00;69.70;;;;;;4855639;29;20110;-70
2021/01/18 01:00:43;;;;;;;18.52;11.40;;;2.00;69.20;;;;;;4856755;29;20065;-71
2021/01/18 01:03:10;;;;;;;21.77;11.90;;;2.00;69.00;;;;;;4853482;29;20121;-71
2021/01/18 01:05:37;;;;;;;19.60;11.20;;;2.00;69.00;;;;;;4855894;29;20121;-72
2021/01/18 01:08:05;;;;;;;29.23;12.00;;;2.00;68.90;;;;;;4854674;29;20052;-72
2021/01/18 01:10:34;;;;;;;21.33;11.38;;;2.00;69.00;;;;;;4857735;29;20057;-70
2021/01/18 01:13:05;;;;;;;24.30;11.50;;;2.00;69.20;;;;;;4854412;29;20084;-72
2021/01/18 01:15:34;;;;;;;24.00;12.13;;;2.00;69.10;;;;;;4855020;29;20098;-72
2021/01/18 01:18:01;;;;;;;23.50;11.10;;;2.00;69.30;;;;;;4854699;29;20058;-70
2021/01/18 01:20:29;;;;;;;26.30;11.65;;;2.00;68.70;;;;;;4858753;29;20059;-71
2021/01/18 01:22:56;;;;;;;20.20;10.82;;;2.00;68.60;;;;;;4851861;29;20484;-72
2021/01/18 01:25:26;;;;;;;22.58;11.57;;;2.00;68.90;;;;;;4856389;29;20042;-72
2021/01/18 01:27:53;;;;;;;22.70;12.30;;;2.00;68.60;;;;;;4854376;29;20077;-70
2021/01/18 01:30:23;;;;;;;23.02;11.80;;;2.00;68.20;;;;;;4855762;29;20080;-72
2021/01/18 01:32:52;;;;;;;26.45;12.18;;;2.00;68.00;;;;;;4852867;29;20084;-72
2021/01/18 01:35:22;;;;;;;24.30;11.65;;;2.10;68.20;;;;;;4859742;29;20057;-71
2021/01/18 01:37:51;;;;;;;20.05;11.60;;;2.10;67.80;;;;;;4855942;29;20057;-72
2021/01/18 01:40:18;;;;;;;23.33;11.82;;;2.10;68.00;;;;;;4856432;29;20057;-71
2021/01/18 01:42:47;;;;;;;20.65;11.02;;;2.10;67.70;;;;;;4850727;29;20053;-71
2021/01/18 01:45:17;;;;;;;22.95;11.45;;;2.10;67.40;;;;;;4856878;29;20101;-70
2021/01/18 01:47:47;;;;;;;21.65;11.25;;;2.20;66.20;;;;;;4855441;29;20053;-71
2021/01/18 01:50:17;;;;;;;18.65;10.68;;;2.20;66.20;;;;;;4854923;29;20513;-74
2021/01/18 01:52:48;;;;;;;24.45;12.27;;;2.20;66.30;;;;;;4852995;29;20053;-72
2021/01/18 01:55:24;;;;;;;22.83;11.45;;;2.20;66.00;;;;;;4853259;29;20058;-70
2021/01/18 01:57:53;;;;;;;22.70;10.55;;;2.20;66.30;;;;;;4856373;29;20069;-72
2021/01/18 02:00:21;;;;;;;23.42;11.70;;;2.10;66.10;;;;;;4854185;29;20065;-71
2021/01/18 02:02:50;;;;;;;19.67;10.70;;;2.20;66.20;;;;;;4853097;29;20053;-71
2021/01/18 02:05:17;;;;;;;18.38;10.68;;;2.10;65.90;;;;;;4855092;29;20665;-71
2021/01/18 02:07:44;;;;;;;21.75;10.88;;;2.20;65.70;;;;;;4852946;29;20065;-69
2021/01/18 02:10:12;;;;;;;22.88;11.50;;;2.20;66.10;;;;;;4853018;29;20057;-74
2021/01/18 02:12:39;;;;;;;20.77;11.23;;;2.10;66.30;;;;;;4848417;29;20573;-72
2021/01/18 02:15:17;;;;;;;27.58;11.18;;;2.10;66.60;;;;;;4853056;29;20068;-70
2021/01/18 02:18:03;;;;;;;20.42;10.98;;;2.10;66.30;;;;;;4848865;29;20547;-71
2021/01/18 02:21:35;;;;;;;20.42;9.82;;;2.10;65.90;;;;;;4852488;29;20066;-72
2021/01/18 02:24:39;;;;;;;23.63;10.80;;;2.10;65.50;;;;;;4854067;29;20065;-71
2021/01/18 02:27:33;;;;;;;25.88;11.70;;;2.10;66.30;;;;;;4853702;29;20068;-72
2021/01/18 02:30:11;;;;;;;21.50;11.15;;;2.10;65.80;;;;;;4855280;29;20063;-72
2021/01/18 02:33:00;;;;;;;22.67;11.05;;;2.10;65.90;;;;;;4848124;29;20049;-71
2021/01/18 02:36:00;;;;;;;23.48;10.95;;;2.10;65.80;;;;;;4853086;29;20166;-73
2021/01/18 02:38:31;;;;;;;24.10;12.80;;;2.10;65.20;;;;;;4853277;29;20057;-71
2021/01/18 02:41:15;;;;;;;25.52;12.65;;;2.10;65.20;;;;;;4851749;29;20060;-72
2021/01/18 02:43:47;;;;;;;26.35;12.38;;;2.10;65.10;;;;;;4852289;29;20074;-72
2021/01/18 02:46:18;;;;;;;24.98;11.70;;;2.10;64.70;;;;;;4852625;29;20053;-72
2021/01/18 02:48:47;;;;;;;26.83;13.65;;;2.10;65.10;;;;;;4852594;29;20058;-73
2021/01/18 02:51:18;;;;;;;24.10;12.90;;;2.10;64.60;;;;;;4851899;29;20497;-73
2021/01/18 02:53:55;;;;;;;30.05;12.65;;;2.10;63.80;;;;;;4852945;29;20057;-70
2021/01/18 02:56:27;;;;;;;25.92;12.30;;;2.10;64.20;;;;;;4853323;29;20130;-71
2021/01/18 02:58:57;;;;;;;23.65;12.07;;;2.10;64.20;;;;;;4854603;29;20057;-71
2021/01/18 03:01:43;;;;;;;27.20;12.88;;;2.10;64.60;;;;;;4852900;29;20067;-70
2021/01/18 03:04:23;;;;;;;28.23;12.40;;;2.10;64.30;;;;;;4854269;29;20073;-72
2021/01/18 03:06:55;;;;;;;26.30;13.52;;;2.10;64.20;;;;;;4854585;29;20057;-73
2021/01/18 03:09:29;;;;;;;22.90;12.95;;;2.10;63.90;;;;;;4855313;29;20064;-73
2021/01/18 03:12:04;;;;;;;23.48;12.45;;;2.10;63.80;;;;;;4851801;29;20052;-73
2021/01/18 03:14:37;;;;;;;27.98;12.88;;;2.10;63.80;;;;;;4855994;29;20065;-72
2021/01/18 03:17:05;;;;;;;25.25;12.02;;;2.00;63.70;;;;;;4856019;29;20052;-73
2021/01/18 03:19:41;;;;;;;24.52;12.88;;;2.00;63.60;;;;;;4856247;29;20061;-71
2021/01/18 03:22:09;;;;;;;24.27;13.07;;;2.00;64.00;;;;;;4854533;29;20061;-71
2021/01/18 03:24:36;;;;;;;23.42;12.13;;;2.10;63.80;;;;;;4856134;29;20771;-72
2021/01/18 03:27:05;;;;;;;21.55;12.02;;;2.00;63.70;;;;;;4858623;29;20061;-74
2021/01/18 03:29:32;;;;;;;23.60;12.75;;;2.00;63.60;;;;;;4856190;29;20080;-73
2021/01/18 03:31:59;;;;;;;22.90;12.30;;;2.00;63.60;;;;;;4851125;29;20053;-71
2021/01/18 03:34:26;;;;;;;23.42;11.27;;;2.00;63.60;;;;;;4854589;29;20066;-72
2021/01/18 03:36:52;;;;;;;25.10;12.02;;;2.00;63.60;;;;;;4853466;29;20049;-70
2021/01/18 03:39:20;;;;;;;22.67;10.60;;;2.00;62.90;;;;;;4852216;29;20060;-69
2021/01/18 03:41:47;;;;;;;25.17;11.60;;;2.00;62.80;;;;;;4849674;29;20061;-71
2021/01/18 03:44:14;;;;;;;23.52;11.82;;;2.00;63.20;;;;;;4858400;29;20454;-72
2021/01/18 03:46:44;;;;;;;21.30;11.05;;;2.00;62.70;;;;;;4857159;29;20068;-70
2021/01/18 03:49:11;;;;;;;24.13;11.43;;;2.00;63.40;;;;;;4853335;29;20053;-71
2021/01/18 03:51:38;;;;;;;21.00;11.05;;;2.00;63.60;;;;;;4851457;29;20588;-71
2021/01/18 03:54:06;;;;;;;20.48;10.50;;;2.10;63.30;;;;;;4852328;29;20159;-71
2021/01/18 03:56:38;;;;;;;19.48;10.85;;;2.00;63.10;;;;;;4855426;29;20061;-72
2021/01/18 03:59:05;;;;;;;23.42;11.05;;;2.00;63.60;;;;;;4855901;29;20061;-70
2021/01/18 04:01:37;;;;;;;22.67;10.88;;;2.00;63.40;;;;;;4851745;29;20065;-70
2021/01/18 04:04:05;;;;;;;20.63;10.88;;;1.90;63.00;;;;;;4851814;29;20067;-71
2021/01/18 04:06:36;;;;;;;24.65;11.70;;;2.00;62.90;;;;;;4852812;29;20061;-70
2021/01/18 04:09:04;;;;;;;22.52;11.05;;;2.00;62.50;;;;;;4854238;29;20057;-73
2021/01/18 04:11:31;;;;;;;23.55;9.75;;;1.90;62.90;;;;;;4852098;29;20059;-71
2021/01/18 04:13:59;;;;;;;20.17;10.30;;;1.90;63.10;;;;;;4851408;29;20061;-70
2021/01/18 04:16:26;;;;;;;19.73;10.88;;;1.90;63.20;;;;;;4853711;29;20069;-70
2021/01/18 04:18:53;;;;;;;19.92;10.02;;;1.90;63.50;;;;;;4853415;29;20066;-70
2021/01/18 04:21:20;;;;;;;22.08;10.05;;;1.90;63.80;;;;;;4849010;29;20054;-72
2021/01/18 04:23:47;;;;;;;24.95;9.77;;;1.80;64.50;;;;;;4850405;29;20199;-71
2021/01/18 04:26:14;;;;;;;22.00;10.45;;;1.80;64.60;;;;;;4855414;29;20042;-72
2021/01/18 04:28:41;;;;;;;22.73;11.70;;;1.80;65.30;;;;;;4851539;29;20057;-71
2021/01/18 04:31:09;;;;;;;26.83;12.27;;;1.80;65.60;;;;;;4851778;29;20075;-72
2021/01/18 04:33:36;;;;;;;25.73;11.07;;;1.80;66.00;;;;;;4848925;29;20152;-70
2021/01/18 04:36:04;;;;;;;28.45;11.98;;;1.70;66.60;;;;;;4853737;29;20057;-69
2021/01/18 04:38:30;;;;;;;22.50;11.27;;;1.70;67.00;;;;;;4852712;29;20068;-70
2021/01/18 04:40:57;;;;;;;22.35;11.77;;;1.70;67.40;;;;;;4851431;29;20083;-70
2021/01/18 04:43:24;;;;;;;23.20;11.98;;;1.70;67.70;;;;;;4849673;29;20068;-68
2021/01/18 04:45:51;;;;;;;23.77;11.93;;;1.70;68.00;;;;;;4854548;29;20579;-69
2021/01/18 04:48:20;;;;;;;23.95;11.93;;;1.70;68.00;;;;;;4852625;29;20057;-71
2021/01/18 04:50:48;;;;;;;26.48;12.65;;;1.80;68.90;;;;;;4853322;29;20516;-71
2021/01/18 04:53:16;;;;;;;27.50;12.05;;;1.80;68.20;;;;;;4850749;29;20077;-69
2021/01/18 04:56:06;;;;;;;28.40;13.20;;;1.80;67.20;;;;;;4854211;29;20064;-73
2021/01/18 04:58:38;;;;;;;28.35;11.90;;;1.80;67.40;;;;;;4851172;29;20065;-73
2021/01/18 05:01:05;;;;;;;29.15;12.77;;;1.80;67.10;;;;;;4850690;29;20058;-70
2021/01/18 05:03:36;;;;;;;31.35;13.10;;;1.80;66.80;;;;;;4848451;29;20159;-69
2021/01/18 05:06:30;;;;;;;25.90;11.50;;;1.80;66.60;;;;;;4852838;29;20050;-72
2021/01/18 05:09:32;;;;;;;23.93;12.80;;;1.80;66.10;;;;;;4853802;29;20060;-69
2021/01/18 05:11:59;;;;;;;22.67;12.05;;;1.80;65.30;;;;;;4848272;29;20049;-69
2021/01/18 05:14:26;;;;;;;23.55;12.15;;;1.80;63.90;;;;;;4854729;29;20132;-70
2021/01/18 05:16:58;;;;;;;29.33;12.45;;;1.80;64.10;;;;;;4852530;29;20061;-69
2021/01/18 05:19:27;;;;;;;23.10;11.63;;;1.80;63.50;;;;;;4849824;29;20135;-70
2021/01/18 05:21:55;;;;;;;24.10;12.43;;;1.80;63.80;;;;;;4849312;29;20052;-71
2021/01/18 05:24:22;;;;;;;29.35;12.15;;;1.80;63.80;;;;;;4853809;29;20144;-70
2021/01/18 05:27:07;;;;;;;28.08;12.18;;;1.80;63.50;;;;;;4851015;29;20453;-71
2021/01/18 05:29:35;;;;;;;31.02;12.00;;;1.90;63.60;;;;;;4853507;29;20064;-70
2021/01/18 05:32:02;;;;;;;32.63;13.40;;;1.80;63.30;;;;;;4846849;29;20065;-71
2021/01/18 05:34:31;;;;;;;23.08;11.68;;;1.80;63.20;;;;;;4854292;29;20057;-69
2021/01/18 05:36:58;;;;;;;25.35;11.30;;;1.80;63.40;;;;;;4851624;29;20073;-71
2021/01/18 05:39:31;;;;;;;25.60;12.23;;;1.80;63.20;;;;;;4854536;29;20526;-71
2021/01/18 05:41:59;;;;;;;24.33;10.77;;;1.80;63.40;;;;;;4847341;29;20055;-71
2021/01/18 05:44:32;;;;;;;18.63;10.93;;;1.80;63.40;;;;;;4852705;29;20067;-71
2021/01/18 05:47:03;;;;;;;26.27;11.02;;;1.80;63.40;;;;;;4853948;29;20401;-70
2021/01/18 05:49:41;;;;;;;22.20;10.75;;;1.80;61.60;;;;;;4852206;29;20053;-70
2021/01/18 05:52:26;;;;;;;26.10;10.88;;;1.90;62.10;;;;;;4850582;29;20938;-70
2021/01/18 05:55:14;;;;;;;18.80;10.10;;;1.80;61.30;;;;;;4852655;29;20057;-70
2021/01/18 05:57:45;;;;;;;21.85;9.85;;;1.90;60.00;;;;;;4851126;29;20053;-70
2021/01/18 06:00:13;;;;;;;23.90;9.73;;;1.90;59.50;;;;;;4850918;29;20058;-71
2021/01/18 06:02:47;;;;;;;21.50;9.98;;;1.90;58.00;;;;;;4846263;29;20061;-72
2021/01/18 06:05:16;;;;;;;21.27;10.27;;;1.90;57.60;;;;;;4851542;29;20282;-71
2021/01/18 06:07:43;;;;;;;20.23;9.80;;;1.90;57.10;;;;;;4853206;29;20143;-73
2021/01/18 06:10:11;;;;;;;22.25;9.60;;;1.90;56.60;;;;;;4852074;29;20149;-70
2021/01/18 06:12:37;;;;;;;20.88;9.60;;;1.90;55.70;;;;;;4847462;29;20156;-69
2021/01/18 06:15:09;;;;;;;17.88;8.45;;;1.90;56.70;;;;;;4852981;29;20057;-72
2021/01/18 06:17:37;;;;;;;26.55;10.00;;;1.90;56.90;;;;;;4849771;29;20587;-69
2021/01/18 06:20:07;;;;;;;18.10;9.15;;;1.90;57.00;;;;;;4852796;29;20556;-70
2021/01/18 06:22:35;;;;;;;20.17;9.52;;;1.90;57.80;;;;;;4847909;29;20052;-72
2021/01/18 06:25:12;;;;;;;17.27;8.85;;;1.90;57.70;;;;;;4850439;29;20073;-69
2021/01/18 06:27:39;;;;;;;19.60;8.95;;;1.90;58.00;;;;;;4849257;29;20049;-71
2021/01/18 06:30:20;;;;;;;21.73;9.45;;;2.00;56.00;;;;;;4853728;29;20087;-70
2021/01/18 06:32:51;;;;;;;20.65;9.25;;;2.00;55.60;;;;;;4845514;29;20140;-72
2021/01/18 06:35:24;;;;;;;17.45;9.23;;;2.00;55.70;;;;;;4850963;29;20064;-71
2021/01/18 06:38:00;;;;;;;19.48;8.93;;;2.00;55.90;;;;;;4851612;29;20053;-73
2021/01/18 06:40:30;;;;;;;20.45;9.48;;;2.00;56.30;;;;;;4852155;29;22377;-70
2021/01/18 06:42:58;;;;;;;17.33;9.63;;;2.00;56.60;;;;;;4847712;29;20061;-70
2021/01/18 06:45:31;;;;;;;17.35;8.82;;;2.10;55.80;;;;;;4850371;29;21323;-71
2021/01/18 06:47:59;;;;;;;18.75;8.55;;;2.10;55.70;;;;;;4849846;29;20061;-69
2021/01/18 06:50:29;;;;;;;26.60;9.05;;;2.00;55.80;;;;;;4853645;29;20449;-70
2021/01/18 06:53:08;;;;;;;18.63;8.65;;;2.00;55.80;;;;;;4849531;29;20523;-72
2021/01/18 06:55:44;;;;;;;16.40;7.97;;;2.10;54.90;;;;;;4859145;29;20121;-71
2021/01/18 06:58:41;;;;;;;14.15;7.57;;;2.10;54.80;;;;;;4857467;29;20045;-71
2021/01/18 07:01:13;;;;;;;16.13;8.75;;;2.10;54.80;;;;;;4851629;29;20600;-71
2021/01/18 07:03:42;;;;;;;23.30;8.82;;;2.10;55.20;;;;;;4854751;29;20474;-71
2021/01/18 07:06:28;;;;;;;16.77;8.55;;;2.10;55.10;;;;;;4856535;29;20559;-70
2021/01/18 07:08:58;;;;;;;22.42;8.55;;;2.10;55.70;;;;;;4861092;29;20053;-71
2021/01/18 07:11:31;;;;;;;20.42;9.40;;;2.10;55.50;;;;;;4858133;29;20977;-70
2021/01/18 07:14:02;;;;;;;16.63;8.85;;;2.20;55.50;;;;;;4859187;29;20054;-72
2021/01/18 07:16:29;;;;;;;19.80;9.25;;;2.20;55.50;;;;;;4863347;29;20101;-71
2021/01/18 07:18:57;;;;;;;16.95;8.23;;;2.10;54.90;;;;;;4859474;29;20188;-73
2021/01/18 07:21:28;;;;;;;20.70;8.50;;;2.10;54.70;;;;;;4856300;29;20061;-72
2021/01/18 07:23:58;;;;;;;16.85;9.15;;;2.20;54.60;;;;;;4858744;29;20057;-72
2021/01/18 07:26:49;;;;;;;14.90;8.27;;;2.20;53.20;;;;;;4859202;29;20104;-72
2021/01/18 07:29:20;;;;;;;20.92;10.20;;;2.20;53.90;;;;;;4862189;29;20080;-71
2021/01/18 07:31:52;;;;;;;18.00;7.97;;;2.10;53.10;;;;;;4857581;29;20061;-72
2021/01/18 07:34:21;;;;;;;19.27;8.80;;;2.20;53.70;;;;;;4860989;29;20086;-70
2021/01/18 07:36:49;;;;;;;21.05;9.77;;;2.20;52.90;;;;;;4858921;29;20144;-71
2021/01/18 07:39:25;;;;;;;21.40;8.75;;;2.20;52.50;;;;;;4859882;29;20071;-71
2021/01/18 07:41:52;;;;;;;20.55;9.00;;;2.20;53.10;;;;;;4854549;29;20068;-70
2021/01/18 07:44:37;;;;;;;16.98;8.80;;;2.20;53.20;;;;;;4859789;29;20059;-71
2021/01/18 07:47:04;;;;;;;;;;;2.20;53.70;;;;;;4861056;29;20069;-71
2021/01/18 07:49:37;;;;;;;21.58;9.02;;;2.20;53.80;;;;;;4862031;29;19932;-71
2021/01/18 07:52:19;;;;;;;17.65;9.10;;;2.20;54.10;;;;;;4856406;29;20068;-72
2021/01/18 07:54:47;;;;;;;22.73;10.23;;;2.20;54.10;;;;;;4860351;29;20144;-70
2021/01/18 07:57:29;;;;;;;18.52;9.57;;;2.20;54.90;;;;;;4860086;29;20073;-72
2021/01/18 08:00:30;;;;;;;26.50;10.23;;;2.20;54.40;;;;;;4860581;29;20053;-71
2021/01/18 08:03:27;;;;;;;19.05;9.63;;;2.30;54.50;;;;;;4852022;29;20050;-71
2021/01/18 08:06:09;;;;;;;19.83;9.77;;;2.20;53.50;;;;;;4857548;29;20060;-73
2021/01/18 08:08:37;;;;;;;27.20;11.25;;;2.30;54.30;;;;;;4859464;29;20472;-72
2021/01/18 08:11:21;;;;;;;19.77;10.18;;;2.30;53.70;;;;;;4855784;29;20136;-71
2021/01/18 08:13:59;;;;;;;22.45;8.80;;;2.30;53.40;;;;;;4854949;29;20144;-72
2021/01/18 08:16:39;;;;;;;21.27;9.38;;;2.30;53.00;;;;;;4856034;29;20132;-72
2021/01/18 08:19:09;;;;;;;17.70;9.40;;;2.30;53.50;;;;;;4855192;29;20057;-72
2021/01/18 08:21:57;;;;;;;19.35;9.95;;;2.40;52.80;;;;;;4850177;29;20065;-72
2021/01/18 08:24:51;;;;;;;19.95;9.15;;;2.40;52.80;;;;;;4856566;29;20427;-70
2021/01/18 08:27:37;;;;;;;23.00;10.52;;;2.40;53.20;;;;;;4856808;29;20124;-71
2021/01/18 08:30:34;;;;;;;21.30;9.50;;;2.40;53.40;;;;;;4856435;29;20067;-72
2021/01/18 08:33:03;;;;;;;21.90;9.77;;;2.40;53.30;;;;;;4847870;29;20136;-70
2021/01/18 08:35:33;;;;;;;20.45;9.70;;;2.40;53.50;;;;;;4854734;29;20053;-71
2021/01/18 08:38:23;;;;;;;21.58;10.23;;;2.50;54.10;;;;;;4850943;29;20060;-70
2021/01/18 08:40:52;;;;;;;16.02;8.85;;;2.50;54.00;;;;;;4850484;29;20062;-71
2021/01/18 08:43:21;;;;;;;20.15;9.88;;;2.60;53.60;;;;;;4847822;29;20149;-71
2021/01/18 08:45:50;;;;;;;19.90;10.23;;;2.60;53.80;;;;;;4853167;29;20073;-70
2021/01/18 08:48:20;;;;;;;19.02;9.07;;;2.70;53.10;;;;;;4849668;29;20184;-71
2021/01/18 08:50:52;;;;;;;20.17;9.90;;;2.70;52.30;;;;;;4849323;29;20152;-72
2021/01/18 08:53:27;;;;;;;15.90;9.48;;;2.80;52.50;;;;;;4847159;29;20714;-71
2021/01/18 08:55:55;;;;;;;19.67;8.93;;;2.70;50.70;;;;;;4849829;29;20064;-70
2021/01/18 08:58:34;;;;;;;20.67;10.07;;;2.80;51.90;;;;;;4850122;29;20129;-71
2021/01/18 09:01:02;;;;;;;16.13;7.97;;;2.70;51.10;;;;;;4848846;29;20061;-72
2021/01/18 09:03:29;;;;;;;16.15;8.70;;;2.70;50.40;;;;;;4848893;29;20601;-72
2021/01/18 09:05:57;;;;;;;19.10;8.85;;;2.80;51.60;;;;;;4850366;29;20071;-71
2021/01/18 09:08:26;;;;;;;15.70;9.35;;;2.90;51.40;;;;;;4852937;29;20057;-70
2021/01/18 09:10:54;;;;;;;17.73;9.38;;;3.00;50.80;;;;;;4850414;29;20132;-72
2021/01/18 09:13:22;;;;;;;17.80;9.00;;;2.90;50.90;;;;;;4849679;29;20057;-70
2021/01/18 09:15:51;;;;;;;17.33;8.52;;;3.00;51.10;;;;;;4851656;29;20049;-70
2021/01/18 09:18:19;;;;;;;24.73;10.93;;;2.90;49.40;;;;;;4854031;29;20428;-70
2021/01/18 09:20:46;;;;;;;16.48;8.88;;;3.10;50.40;;;;;;4850233;29;20071;-72
2021/01/18 09:23:14;;;;;;;20.13;8.63;;;2.90;49.70;;;;;;4849840;29;20057;-71
2021/01/18 09:26:00;;;;;;;16.23;8.50;;;3.10;50.30;;;;;;4852763;29;20149;-71
2021/01/18 09:28:28;;;;;;;12.38;6.80;;;3.10;48.10;;;;;;4852738;29;20065;-71
2021/01/18 09:30:56;;;;;;;13.57;7.35;;;3.00;48.00;;;;;;4851986;29;20163;-72
2021/01/18 09:33:27;;;;;;;15.73;7.63;;;3.10;48.70;;;;;;4848416;29;20061;-71
2021/01/18 09:35:54;;;;;;;15.85;7.70;;;3.10;48.70;;;;;;4853463;29;20636;-71
2021/01/18 09:38:21;;;;;;;13.63;7.72;;;3.10;46.70;;;;;;4850900;29;20061;-71
2021/01/18 09:40:48;;;;;;;13.38;6.72;;;3.30;45.70;;;;;;4851851;29;22244;-71
2021/01/18 09:43:20;;;;;;;14.88;7.32;;;3.20;45.90;;;;;;4847198;29;20053;-73
2021/01/18 09:45:54;;;;;;;10.77;7.40;;;3.30;46.50;;;;;;4852746;29;20056;-72
2021/01/18 09:48:24;;;;;;;11.30;6.78;;;3.30;46.80;;;;;;4850948;29;20049;-70
2021/01/18 09:50:58;;;;;;;12.00;6.63;;;3.30;45.40;;;;;;4851049;29;20152;-71
2021/01/18 09:53:26;;;;;;;14.40;7.68;;;3.40;45.20;;;;;;4846232;29;20070;-70
2021/01/18 09:55:55;;;;;;;10.90;6.32;;;3.30;44.90;;;;;;4847789;29;20787;-70
2021/01/18 09:58:32;;;;;;;12.43;7.05;;;3.40;45.30;;;;;;4851943;29;20123;-71
2021/01/18 10:01:01;;;;;;;12.85;6.78;;;3.30;45.70;;;;;;4850470;29;20140;-71
2021/01/18 10:03:32;;;;;;;10.98;6.30;;;3.20;44.70;;;;;;4847330;29;20165;-71
2021/01/18 10:06:04;;;;;;;11.13;6.47;;;3.20;44.80;;;;;;4851932;29;20065;-71
2021/01/18 10:08:32;;;;;;;12.23;5.80;;;3.30;44.90;;;;;;4852337;29;20089;-72
2021/01/18 10:11:00;;;;;;;15.55;6.10;;;3.30;43.20;;;;;;4850446;29;20054;-71
2021/01/18 10:13:28;;;;;;;9.68;5.47;;;3.40;42.70;;;;;;4847151;29;20135;-70
2021/01/18 10:16:05;;;;;;;12.63;6.28;;;3.30;42.90;;;;;;4853302;29;20075;-71
2021/01/18 10:18:37;;;;;;;11.80;6.22;;;3.40;43.00;;;;;;4850660;29;20063;-70
2021/01/18 10:21:05;;;;;;;15.32;6.45;;;3.50;41.40;;;;;;4849985;29;20541;-71
2021/01/18 10:23:34;;;;;;;10.82;6.97;;;3.50;42.10;;;;;;4848492;29;20085;-71
2021/01/18 10:26:21;;;;;;;13.45;6.07;;;3.60;41.40;;;;;;4850759;29;20053;-69
2021/01/18 10:28:52;;;;;;;13.02;6.18;;;3.60;40.50;;;;;;4851720;29;20719;-70
2021/01/18 10:31:21;;;;;;;11.38;6.10;;;3.80;40.50;;;;;;4848361;29;20132;-72
2021/01/18 10:34:10;;;;;;;10.48;6.03;;;3.80;39.00;;;;;;4850072;29;20077;-71
2021/01/18 10:36:37;;;;;;;21.98;11.48;;;4.00;37.20;;;;;;4851373;29;20057;-69
2021/01/18 10:39:04;;;;;;;13.20;5.70;;;4.20;37.30;;;;;;4852055;29;20140;-69
2021/01/18 10:41:33;;;;;;;13.60;6.03;;;4.20;35.20;;;;;;4846401;29;20057;-69
2021/01/18 10:44:21;;;;;;;9.95;5.78;;;4.30;33.60;;;;;;4855388;29;20053;-70
2021/01/18 10:46:51;;;;;;;11.05;6.18;;;4.50;33.20;;;;;;4852360;29;20067;-69
2021/01/18 10:49:27;;;;;;;11.50;5.63;;;4.40;31.90;;;;;;4853572;29;20171;-70
2021/01/18 10:52:01;;;;;;;11.35;5.55;;;4.20;33.00;;;;;;4851162;29;20057;-71
2021/01/18 10:54:28;;;;;;;10.27;5.38;;;4.30;33.90;;;;;;4856516;29;20068;-71
2021/01/18 10:56:57;;;;;;;10.20;5.55;;;4.20;33.70;;;;;;4854898;29;20049;-70
2021/01/18 10:59:24;;;;;;;7.70;4.82;;;4.10;33.90;;;;;;4854999;29;20085;-69
2021/01/18 11:02:05;;;;;;;9.82;5.60;;;4.20;32.50;;;;;;4850224;29;20065;-70
2021/01/18 11:04:36;;;;;;;11.25;5.88;;;4.20;31.60;;;;;;4856037;29;20113;-71
2021/01/18 11:07:03;;;;;;;12.52;8.80;;;4.10;34.00;;;;;;4853087;29;20045;-70
2021/01/18 11:09:31;;;;;;;9.30;5.18;;;4.10;35.10;;;;;;4853650;29;20084;-70
2021/01/18 11:12:00;;;;;;;10.88;5.93;;;4.10;32.30;;;;;;4846381;29;20075;-70
2021/01/18 11:14:28;;;;;;;9.45;5.45;;;4.10;33.10;;;;;;4853863;29;20067;-71
2021/01/18 11:16:59;;;;;;;10.32;5.72;;;4.10;34.50;;;;;;4855790;29;20056;-71
2021/01/18 11:19:27;;;;;;;7.93;5.13;;;3.90;33.90;;;;;;4851315;29;20057;-71
2021/01/18 11:21:55;;;;;;;9.95;5.07;;;3.90;32.30;;;;;;4848717;29;20069;-70
2021/01/18 11:24:21;;;;;;;11.48;5.35;;;3.90;31.70;;;;;;4853386;29;20431;-72
2021/01/18 11:26:49;;;;;;;11.05;5.25;;;4.10;33.20;;;;;;4854434;29;20174;-69
2021/01/18 11:29:16;;;;;;;11.02;5.80;;;4.00;32.80;;;;;;4854222;29;20049;-71
2021/01/18 11:31:43;;;;;;;7.93;4.38;;;4.10;33.20;;;;;;4848318;29;20061;-70
2021/01/18 11:34:10;;;;;;;10.52;4.70;;;4.00;29.90;;;;;;4853135;29;20052;-71
2021/01/18 11:36:38;;;;;;;9.45;4.72;;;4.10;30.80;;;;;;4853700;29;20436;-71
2021/01/18 11:39:07;;;;;;;9.45;4.20;;;4.10;30.80;;;;;;4853762;29;20148;-71
2021/01/18 11:41:34;;;;;;;6.20;3.40;;;4.20;30.30;;;;;;4846603;29;20071;-70
2021/01/18 11:44:02;;;;;;;10.90;4.13;;;3.80;30.60;;;;;;4851765;29;20072;-69
2021/01/18 11:46:29;;;;;;;8.05;4.15;;;4.10;32.50;;;;;;4852661;29;20192;-70
2021/01/18 11:48:57;;;;;;;9.50;4.35;;;4.10;32.10;;;;;;4851251;29;20064;-70
2021/01/18 11:51:23;;;;;;;11.00;4.95;;;4.10;30.70;;;;;;4852007;29;20059;-69
2021/01/18 11:53:50;;;;;;;7.25;4.25;;;4.20;29.80;;;;;;4854153;29;20053;-73
2021/01/18 11:56:18;;;;;;;9.27;4.55;;;4.20;31.30;;;;;;4852367;29;20064;-70
2021/01/18 11:58:45;;;;;;;12.70;4.97;;;4.10;30.30;;;;;;4852350;29;20053;-68
2021/01/18 12:01:12;;;;;;;7.40;3.92;;;4.20;32.30;;;;;;4850555;29;20065;-69
2021/01/18 12:03:39;;;;;;;10.63;5.00;;;4.10;31.30;;;;;;4849876;29;20110;-69
2021/01/18 12:06:06;;;;;;;10.90;5.05;;;3.90;32.00;;;;;;4853684;29;20071;-69
2021/01/18 12:08:32;;;;;;;9.50;5.75;;;3.90;31.00;;;;;;4850695;29;20144;-69
2021/01/18 12:10:59;;;;;;;11.25;5.80;;;4.10;31.20;;;;;;4849126;29;20107;-69
2021/01/18 12:13:30;;;;;;;13.52;5.80;;;4.20;32.10;;;;;;4854471;29;20066;-68
2021/01/18 12:15:57;;;;;;;8.65;4.03;;;4.40;29.40;;;;;;4856618;29;20060;-67
2021/01/18 12:18:25;;;;;;;8.27;3.40;;;3.90;29.70;;;;;;4849373;29;20140;-69
2021/01/18 12:20:52;;;;;;;9.23;2.78;;;4.00;29.40;;;;;;4850874;29;20067;-69
2021/01/18 12:23:19;;;;;;;8.00;3.88;;;4.00;29.30;;;;;;4855494;29;20809;-72
2021/01/18 12:25:46;;;;;;;18.75;8.05;;;4.10;30.90;;;;;;4856040;29;20053;-73
2021/01/18 12:28:13;;;;;;;6.63;4.03;;;4.00;29.90;;;;;;4852749;29;20049;-73
2021/01/18 12:30:40;;;;;;;10.88;5.32;;;4.10;29.50;;;;;;4852705;29;20590;-74
2021/01/18 12:33:07;;;;;;;9.43;4.20;;;4.20;29.60;;;;;;4851511;29;20524;-73
2021/01/18 12:35:47;;;;;;;7.50;3.72;;;4.30;29.30;;;;;;4855429;29;20073;-72
2021/01/18 12:38:15;;;;;;;7.97;3.70;;;4.10;29.20;;;;;;4853918;29;20060;-72
2021/01/18 12:40:42;;;;;;;7.30;3.40;;;4.10;29.20;;;;;;4855607;29;20057;-74
2021/01/18 12:43:09;;;;;;;10.75;5.13;;;4.20;29.20;;;;;;4853046;29;20736;-71
2021/01/18 12:45:36;;;;;;;5.95;2.55;;;4.20;29.70;;;;;;4855706;29;20088;-73
2021/01/18 12:48:05;;;;;;;8.68;3.08;;;4.20;28.50;;;;;;4858834;29;20060;-76
2021/01/18 12:50:32;;;;;;;7.10;2.95;;;4.10;29.60;;;;;;4855879;29;20063;-74
2021/01/18 12:52:59;;;;;;;6.93;3.42;;;4.10;28.90;;;;;;4854605;29;20050;-72
2021/01/18 12:55:26;;;;;;;5.35;2.30;;;4.00;29.10;;;;;;4858841;29;20155;-71
2021/01/18 12:57:53;;;;;;;3.85;2.30;;;4.10;29.90;;;;;;4858507;29;20080;-71
2021/01/18 13:00:20;;;;;;;7.25;2.70;;;4.10;28.40;;;;;;4852473;29;20061;-73
2021/01/18 13:02:47;;;;;;;5.13;2.35;;;3.90;27.80;;;;;;4853262;29;20135;-71
2021/01/18 13:05:15;;;;;;;6.45;2.83;;;4.10;29.20;;;;;;4859106;29;20053;-72